»·PEaware :: N16RD 46CA-KCRQ

N16RD :: 46CA-KCRQ

FLIGHT INFORMATION

Flight Status: Arrived
Operator: Privately registered:
United States
More flights under this callsign
Pilot: Brett B. (12105)
Aircraft: CESSNA 152 AEROBAT
(C152)
More flights by this aircraft type
Origin: 46CA Rancho Vallecito
United States
Destination: KCRQ McClellan-Palomar
United States
More flights between these airports :: More routes between these airports
Route: +
File this flight plan on PilotEdge
Remarks:
Altitude:
(Current/Filed)
5,500ft
Speed:
(Current/Filed)
100kts
Departed: 12-Oct-17 12:03 PM
Arrived: 12-Oct-17 12:40 PM
Distance/Time
Traveled:
45nm/0:36
Distance/Time
To Go:
Arrived

Flight Plot

Page will automatically refresh every two minutes.


Map Options




Map Legend


Flown Route
Filed Route
Departure Airport
Arrival Airport
Navaid (VOR, NDB)
Fix

Horizontal Profiles

Position Reports

Time Latitude Longitude Heading Altitude Ground
Speed
12-Oct-17 12:01 32.972280 -116.412510 357 1698ft 0kts
12-Oct-17 12:02 32.972281 -116.412510 357 1698ft 0kts
12-Oct-17 12:03 32.972281 -116.412510 357 1698ft 0kts
12-Oct-17 12:04 32.972281 -116.412510 357 1698ft 0kts
12-Oct-17 12:05 32.972281 -116.412510 357 1698ft 0kts
12-Oct-17 12:06 32.972281 -116.412510 357 1698ft 0kts
12-Oct-17 12:07 32.972342 -116.412365 111 1698ft 0kts
12-Oct-17 12:08 32.970872 -116.408470 113 1698ft 62kts
12-Oct-17 12:09 32.965675 -116.388091 94 2056ft 65kts
12-Oct-17 12:10 32.977074 -116.376523 315 2490ft 75kts
12-Oct-17 12:11 32.971788 -116.398024 266 3008ft 77kts
12-Oct-17 12:12 32.987753 -116.411625 1 3476ft 78kts
12-Oct-17 12:13 33.009668 -116.413715 333 3900ft 81kts
12-Oct-17 12:14 33.018026 -116.436777 264 4335ft 78kts
12-Oct-17 12:15 33.020055 -116.462324 293 4742ft 82kts
12-Oct-17 12:16 33.029691 -116.486783 293 5112ft 83kts
12-Oct-17 12:17 33.045236 -116.506959 322 5448ft 85kts
12-Oct-17 12:18 33.064563 -116.523695 329 5758ft 84kts
12-Oct-17 12:19 33.081826 -116.542123 307 6033ft 84kts
12-Oct-17 12:20 33.098933 -116.560693 324 6296ft 83kts
12-Oct-17 12:21 33.117348 -116.577684 322 6543ft 83kts
12-Oct-17 12:22 33.134539 -116.596816 308 6685ft 91kts
12-Oct-17 12:23 33.145203 -116.624726 274 6642ft 98kts
12-Oct-17 12:24 33.148762 -116.657322 256 6424ft 98kts
12-Oct-17 12:25 33.146511 -116.689601 260 6224ft 98kts
12-Oct-17 12:26 33.141836 -116.721556 250 5962ft 99kts
12-Oct-17 12:27 33.143019 -116.755835 274 5517ft 112kts
12-Oct-17 12:28 33.146211 -116.793079 270 4950ft 112kts
12-Oct-17 12:29 33.150265 -116.830064 275 4439ft 111kts
12-Oct-17 12:30 33.154578 -116.866156 273 3986ft 108kts
12-Oct-17 12:31 33.158099 -116.901153 271 3506ft 104kts
12-Oct-17 12:32 33.159769 -116.934007 265 3202ft 92kts
12-Oct-17 12:33 33.158168 -116.964494 259 3006ft 90kts
12-Oct-17 12:34 33.155963 -116.993996 270 2954ft 87kts
12-Oct-17 12:35 33.154946 -117.023057 268 2858ft 88kts
12-Oct-17 12:36 33.155212 -117.052184 283 2689ft 86kts
12-Oct-17 12:37 33.157792 -117.080775 272 2506ft 86kts
12-Oct-17 12:38 33.156848 -117.109158 267 2343ft 85kts
12-Oct-17 12:39 33.152560 -117.136732 255 2019ft 84kts
12-Oct-17 12:40 33.146858 -117.163717 257 1678ft 85kts
12-Oct-17 12:41 33.143038 -117.190694 260 1634ft 81kts
12-Oct-17 12:42 33.138414 -117.218449 256 1326ft 86kts
12-Oct-17 12:43 33.134326 -117.243195 256 838ft 65kts
12-Oct-17 12:44 33.131565 -117.259892 256 513ft 47kts
12-Oct-17 12:45 33.129217 -117.274959 260 303ft 35kts
12-Oct-17 12:46 33.127898 -117.279524 228 303ft 4kts
12-Oct-17 12:47 33.127154 -117.279976 86 303ft 0kts
12-Oct-17 12:48 33.127154 -117.279976 86 303ft 0kts
12-Oct-17 12:49 33.127154 -117.279976 86 303ft 0kts
12-Oct-17 12:50 33.127154 -117.279976 86 303ft 0kts
12-Oct-17 12:50 33.127154 -117.279976 86 303ft 0kts
12-Oct-17 12:51 33.127154 -117.279976 86 303ft 0kts
12-Oct-17 12:53 33.127154 -117.279976 86 303ft 0kts
12-Oct-17 12:54 33.129343 -117.281174 168 303ft 0kts
12-Oct-17 12:54 33.129343 -117.281174 168 303ft 0kts
12-Oct-17 12:55 33.129343 -117.281174 168 303ft 0kts
12-Oct-17 12:56 33.129343 -117.281174 168 303ft 0kts
12-Oct-17 12:57 33.129343 -117.281174 168 303ft 0kts
12-Oct-17 12:58 33.129343 -117.281174 168 303ft 0kts

Navigation Log

Ident Type
Flight plan parsing failed, navigation log unavailable